X  Luk Metar data     LGBL Nea Anchialos National Airport
Temperatur
33°C Temperatur
19°C Duggpunkt
44% Fugtighed



Vind
6 M/S
14 MPT
23 KM/T
12 KNOB



100°
Ø
Nuværende forhold

Klart Klart
Tryk 1010.84 (hPa) - 29.85 (inHg)
Sigt 6 (mil) - 9.7 (km)
Lufthavn
Lufthavnskode LGBL

Lokation: Nea Anchialos National Airport
Afstand: 74 (km)

Metar:
LGBL 151020Z 10012KT CAVOK 33/19 Q1011

Tid: 15-07-2024 13:20 EEST